createdAt,value
2022-10-30T00:01:13.694Z,6.63
2022-10-30T00:03:40.509Z,7.15
2022-10-30T00:06:07.605Z,7.20
2022-10-30T00:08:34.600Z,7.47
2022-10-30T00:11:13.557Z,7.10
2022-10-30T00:13:40.456Z,7.20
2022-10-30T00:16:09.129Z,5.85
2022-10-30T00:18:37.076Z,5.18
2022-10-30T00:21:08.353Z,6.55
2022-10-30T00:23:35.127Z,8.30
2022-10-30T00:26:05.896Z,8.68
2022-10-30T00:28:32.652Z,6.53
2022-10-30T00:31:03.474Z,6.47
2022-10-30T00:33:30.452Z,7.03
2022-10-30T00:35:57.310Z,5.60
2022-10-30T00:38:24.110Z,6.30
2022-10-30T00:40:50.848Z,7.63
2022-10-30T00:43:37.013Z,7.47
2022-10-30T00:46:36.512Z,9.00
2022-10-30T00:49:04.278Z,6.50
2022-10-30T00:51:31.176Z,7.00
2022-10-30T00:53:59.031Z,6.05
2022-10-30T00:56:25.769Z,7.80
2022-10-30T00:59:11.855Z,10.05
2022-10-30T01:01:39.674Z,5.83
2022-10-30T01:04:06.870Z,8.45
2022-10-30T01:06:35.511Z,7.40
2022-10-30T01:09:02.960Z,4.45
2022-10-30T01:11:29.791Z,6.22
2022-10-30T01:13:58.550Z,5.17
2022-10-30T01:16:31.149Z,5.65
2022-10-30T01:19:04.693Z,5.95
2022-10-30T01:21:46.248Z,7.50
2022-10-30T01:24:35.109Z,6.93
2022-10-30T01:27:01.811Z,6.67
2022-10-30T01:29:41.789Z,6.22
2022-10-30T01:32:31.250Z,5.95
2022-10-30T01:35:21.608Z,8.88
2022-10-30T01:37:54.296Z,8.15
2022-10-30T01:40:21.449Z,7.20
2022-10-30T01:42:55.512Z,6.72
2022-10-30T01:45:30.172Z,9.23
2022-10-30T01:48:34.011Z,6.93
2022-10-30T01:51:09.268Z,8.50
2022-10-30T01:53:42.151Z,6.37
2022-10-30T01:56:16.269Z,9.82
2022-10-30T01:59:07.989Z,8.05
2022-10-30T02:01:36.950Z,6.18
2022-10-30T02:06:30.747Z,6.93
2022-10-30T02:08:57.574Z,7.70
2022-10-30T02:11:25.152Z,6.55
2022-10-30T02:13:51.930Z,7.57
2022-10-30T02:16:18.709Z,6.20
2022-10-30T02:21:12.219Z,5.80
2022-10-30T02:23:38.989Z,6.55
2022-10-30T02:26:05.932Z,7.47
2022-10-30T02:28:32.672Z,6.88
2022-10-30T02:30:59.411Z,6.40
2022-10-30T02:33:26.298Z,6.47
2022-10-30T02:35:53.330Z,6.00
2022-10-30T02:38:20.150Z,7.03
2022-10-30T02:40:46.933Z,5.47
2022-10-30T02:43:13.671Z,6.97
2022-10-30T02:45:40.431Z,7.15
2022-10-30T02:48:07.436Z,7.93
2022-10-30T02:50:34.329Z,8.45
2022-10-30T02:53:01.562Z,7.90
2022-10-30T02:55:28.654Z,6.73
2022-10-30T02:57:55.491Z,6.70
2022-10-30T03:00:22.272Z,5.43
2022-10-30T03:02:49.121Z,6.05
2022-10-30T03:05:16.029Z,8.90
2022-10-30T03:07:42.768Z,5.77
2022-10-30T03:10:09.731Z,7.38
2022-10-30T03:12:36.492Z,9.07
2022-10-30T03:15:03.313Z,8.23
2022-10-30T03:17:30.354Z,8.38
2022-10-30T03:19:57.338Z,6.40
2022-10-30T03:22:24.150Z,8.98
2022-10-30T03:24:50.871Z,6.57
2022-10-30T03:27:17.634Z,6.13
2022-10-30T03:29:44.388Z,6.65
2022-10-30T03:32:11.577Z,7.27
2022-10-30T03:34:38.448Z,7.55
2022-10-30T03:37:05.331Z,6.57
2022-10-30T03:39:32.111Z,9.13
2022-10-30T03:41:58.869Z,7.95
2022-10-30T03:44:25.613Z,6.73
2022-10-30T03:46:52.429Z,7.95
2022-10-30T03:49:19.163Z,8.52
2022-10-30T03:51:45.975Z,5.43
2022-10-30T03:54:12.733Z,6.90
2022-10-30T03:56:39.548Z,10.10
2022-10-30T03:59:06.295Z,8.27
2022-10-30T04:01:33.192Z,9.55
2022-10-30T04:04:00.106Z,7.97
2022-10-30T04:06:26.952Z,11.23
2022-10-30T04:08:55.311Z,10.90
2022-10-30T04:11:22.125Z,6.78
2022-10-30T04:13:49.077Z,7.57
2022-10-30T04:16:15.890Z,6.70
2022-10-30T04:18:42.630Z,7.35
2022-10-30T04:21:09.376Z,6.60
2022-10-30T04:23:36.169Z,7.60
2022-10-30T04:26:03.030Z,8.05
2022-10-30T04:28:29.751Z,8.02
2022-10-30T04:30:56.647Z,6.93
2022-10-30T04:33:23.391Z,7.27
2022-10-30T04:35:50.158Z,9.27
2022-10-30T04:38:19.694Z,8.32
2022-10-30T04:40:46.494Z,6.90
2022-10-30T04:43:13.952Z,7.93
2022-10-30T04:45:41.033Z,7.87
2022-10-30T04:48:12.932Z,7.70
2022-10-30T04:50:39.894Z,9.13
2022-10-30T04:53:17.517Z,6.45
2022-10-30T04:55:44.451Z,7.85
2022-10-30T04:58:11.402Z,8.20
2022-10-30T05:00:38.173Z,8.20
2022-10-30T05:03:04.915Z,7.68
2022-10-30T05:05:31.935Z,7.28
2022-10-30T05:07:59.067Z,7.60
2022-10-30T05:10:26.052Z,6.17
2022-10-30T05:12:55.930Z,6.03
2022-10-30T05:15:23.883Z,7.07
2022-10-30T05:17:53.911Z,8.77
2022-10-30T05:20:20.957Z,7.20
2022-10-30T05:22:56.930Z,7.10
2022-10-30T05:25:24.133Z,7.90
2022-10-30T05:27:50.962Z,6.72
2022-10-30T05:30:17.752Z,9.57
2022-10-30T05:32:44.547Z,7.07
2022-10-30T05:35:11.315Z,6.60
2022-10-30T05:37:38.151Z,8.15
2022-10-30T05:40:05.473Z,6.70
2022-10-30T05:42:32.269Z,7.78
2022-10-30T05:45:01.761Z,9.65
2022-10-30T05:47:29.171Z,7.20
2022-10-30T05:49:55.932Z,8.60
2022-10-30T05:52:22.772Z,10.20
2022-10-30T05:54:49.513Z,7.75
2022-10-30T05:57:16.252Z,10.57
2022-10-30T05:59:43.132Z,8.30
2022-10-30T06:02:09.939Z,9.80
2022-10-30T06:04:36.713Z,7.13
2022-10-30T06:07:03.512Z,9.93
2022-10-30T06:09:30.291Z,9.20
2022-10-30T06:11:58.457Z,8.20
2022-10-30T06:14:25.269Z,12.32
2022-10-30T06:16:52.029Z,7.78
2022-10-30T06:19:19.272Z,8.82
2022-10-30T06:21:46.572Z,8.90
2022-10-30T06:24:13.687Z,11.80
2022-10-30T06:26:40.651Z,11.57
2022-10-30T06:29:07.490Z,10.40
2022-10-30T06:31:34.354Z,9.52
2022-10-30T06:34:01.134Z,7.93
2022-10-30T06:36:27.890Z,9.57
2022-10-30T06:38:54.669Z,9.63
2022-10-30T06:41:25.913Z,8.15
2022-10-30T06:43:55.939Z,9.00
2022-10-30T06:46:25.689Z,8.40
2022-10-30T06:48:55.732Z,7.90
2022-10-30T06:51:22.608Z,9.93
2022-10-30T06:53:49.398Z,10.00
2022-10-30T06:56:16.172Z,8.70
2022-10-30T06:58:43.252Z,9.70
2022-10-30T07:01:10.110Z,8.50
2022-10-30T07:03:36.872Z,8.13
2022-10-30T07:06:03.901Z,8.82
2022-10-30T07:08:30.689Z,8.27
2022-10-30T07:10:58.750Z,8.07
2022-10-30T07:13:25.530Z,9.30
2022-10-30T07:15:52.349Z,8.20
2022-10-30T07:18:19.108Z,7.85
2022-10-30T07:20:45.837Z,9.88
2022-10-30T07:23:12.615Z,9.63
2022-10-30T07:25:39.389Z,8.43
2022-10-30T07:28:06.191Z,11.93
2022-10-30T07:30:32.953Z,10.02
2022-10-30T07:33:04.617Z,9.00
2022-10-30T07:35:32.130Z,7.95
2022-10-30T07:38:06.252Z,8.93
2022-10-30T07:40:33.333Z,7.68
2022-10-30T07:43:01.437Z,8.73
2022-10-30T07:45:28.671Z,7.93
2022-10-30T07:47:56.121Z,9.48
2022-10-30T07:50:23.329Z,8.53
2022-10-30T07:52:50.168Z,8.38
2022-10-30T07:55:16.976Z,8.68
2022-10-30T07:57:43.783Z,7.93
2022-10-30T08:00:12.284Z,11.10
2022-10-30T08:02:39.173Z,8.47
2022-10-30T08:05:06.516Z,9.13
2022-10-30T08:07:34.166Z,7.95
2022-10-30T08:10:00.999Z,7.93
2022-10-30T08:12:27.803Z,8.65
2022-10-30T08:14:54.574Z,9.23
2022-10-30T08:17:21.532Z,9.02
2022-10-30T08:19:48.332Z,10.63
2022-10-30T08:22:15.093Z,9.52
2022-10-30T08:24:41.923Z,8.52
2022-10-30T08:27:08.709Z,9.47
2022-10-30T08:29:35.518Z,7.57
2022-10-30T08:32:02.214Z,8.20
2022-10-30T08:34:31.738Z,9.45
2022-10-30T08:36:58.546Z,9.77
2022-10-30T08:39:25.245Z,9.73
2022-10-30T08:41:52.012Z,8.73
2022-10-30T08:44:18.864Z,8.27
2022-10-30T08:46:45.583Z,9.70
2022-10-30T08:49:12.298Z,8.20
2022-10-30T08:51:39.069Z,8.77
2022-10-30T08:54:05.796Z,7.45
2022-10-30T08:56:32.514Z,7.07
2022-10-30T08:58:59.274Z,8.35
2022-10-30T09:01:26.108Z,7.35
2022-10-30T09:03:52.905Z,7.83
2022-10-30T09:06:19.627Z,8.23
2022-10-30T09:08:46.637Z,6.63
2022-10-30T09:11:13.345Z,8.75
2022-10-30T09:13:40.123Z,7.32
2022-10-30T09:16:07.147Z,8.20
2022-10-30T09:18:33.845Z,8.57
2022-10-30T09:21:03.247Z,7.15
2022-10-30T09:23:31.848Z,6.80
2022-10-30T09:25:58.677Z,8.00
2022-10-30T09:28:25.450Z,6.13
2022-10-30T09:30:56.457Z,7.28
2022-10-30T09:33:23.425Z,7.15
2022-10-30T09:35:50.153Z,7.90
2022-10-30T09:38:16.908Z,6.90
2022-10-30T09:40:46.313Z,6.00
2022-10-30T09:43:34.614Z,6.18
2022-10-30T09:46:25.966Z,7.22
2022-10-30T09:49:30.039Z,8.00
2022-10-30T09:52:15.587Z,7.93
2022-10-30T09:54:54.148Z,6.23
2022-10-30T09:57:31.911Z,5.38
2022-10-30T10:00:17.310Z,6.03
2022-10-30T10:03:05.551Z,6.78
2022-10-30T10:05:42.366Z,7.00
2022-10-30T10:08:12.275Z,5.40
2022-10-30T10:10:40.890Z,6.55
2022-10-30T10:13:11.205Z,5.80
2022-10-30T10:15:47.608Z,6.50
2022-10-30T10:18:26.386Z,7.35
2022-10-30T10:20:55.047Z,7.17
2022-10-30T10:23:33.150Z,6.72
2022-10-30T10:26:00.966Z,6.35
2022-10-30T10:28:52.904Z,6.85
2022-10-30T10:31:34.491Z,7.47
2022-10-30T10:34:24.151Z,5.83
2022-10-30T10:36:56.888Z,7.25
2022-10-30T10:39:27.915Z,7.30
2022-10-30T10:42:11.133Z,8.98
2022-10-30T10:44:58.470Z,5.93
2022-10-30T10:47:44.530Z,6.43
2022-10-30T10:50:23.411Z,5.95
2022-10-30T10:52:56.211Z,5.70
2022-10-30T10:55:25.791Z,7.97
2022-10-30T10:57:52.569Z,6.38
2022-10-30T11:00:20.934Z,6.30
2022-10-30T11:02:57.808Z,6.50
2022-10-30T11:05:43.386Z,6.07
2022-10-30T11:08:29.629Z,5.60
2022-10-30T11:11:00.654Z,7.22
2022-10-30T11:13:46.017Z,6.70
2022-10-30T11:16:29.212Z,7.25
2022-10-30T11:19:01.129Z,6.97
2022-10-30T11:21:29.394Z,6.63
2022-10-30T11:23:56.168Z,7.57
2022-10-30T11:26:25.608Z,7.33
2022-10-30T11:29:06.347Z,6.63
2022-10-30T11:31:38.277Z,9.02
2022-10-30T11:34:33.867Z,8.52
2022-10-30T11:37:00.727Z,6.85
2022-10-30T11:39:29.329Z,6.27
2022-10-30T11:42:01.853Z,6.55
2022-10-30T11:44:36.971Z,9.02
2022-10-30T11:47:04.346Z,7.80
2022-10-30T11:49:39.966Z,7.72
2022-10-30T11:52:06.777Z,6.43
2022-10-30T11:54:36.528Z,8.38
2022-10-30T11:57:03.430Z,7.15
2022-10-30T11:59:30.189Z,7.78
2022-10-30T12:02:04.491Z,7.35
2022-10-30T12:04:33.155Z,6.53
2022-10-30T12:07:25.133Z,7.30
2022-10-30T12:09:51.931Z,7.03
2022-10-30T12:12:39.592Z,7.55
2022-10-30T12:15:20.251Z,6.70
2022-10-30T12:18:03.128Z,7.23
2022-10-30T12:20:29.951Z,6.75
2022-10-30T12:22:57.112Z,7.35
2022-10-30T12:25:26.970Z,5.95
2022-10-30T12:28:15.988Z,7.55
2022-10-30T12:30:51.808Z,7.40
2022-10-30T12:33:24.415Z,8.57
2022-10-30T12:35:57.867Z,8.18
2022-10-30T12:38:28.388Z,7.93
2022-10-30T12:41:13.327Z,7.43
2022-10-30T12:43:40.067Z,7.73
2022-10-30T12:46:31.008Z,7.80
2022-10-30T12:49:07.870Z,8.65
2022-10-30T12:51:54.771Z,8.43
2022-10-30T12:54:36.428Z,7.40
2022-10-30T12:57:29.107Z,9.33
2022-10-30T13:00:14.900Z,8.00
2022-10-30T13:03:00.094Z,8.38
2022-10-30T13:05:35.948Z,7.50
2022-10-30T13:08:17.895Z,8.43
2022-10-30T13:10:51.129Z,9.43
2022-10-30T13:13:23.588Z,7.25
2022-10-30T13:15:50.969Z,7.72
2022-10-30T13:18:22.734Z,7.10
2022-10-30T13:21:28.146Z,9.20
2022-10-30T13:24:00.249Z,8.90
2022-10-30T13:26:48.927Z,7.63
2022-10-30T13:29:34.507Z,10.02
2022-10-30T13:32:14.868Z,8.80
2022-10-30T13:34:50.566Z,8.73
2022-10-30T13:37:36.035Z,8.80
2022-10-30T13:40:24.427Z,8.48
2022-10-30T13:43:00.928Z,7.47
2022-10-30T13:45:27.753Z,9.02
2022-10-30T13:48:02.417Z,10.00
2022-10-30T13:51:06.627Z,7.63
2022-10-30T13:53:34.331Z,8.00
2022-10-30T13:56:01.113Z,8.88
2022-10-30T13:58:38.374Z,8.95
2022-10-30T14:01:22.570Z,7.82
2022-10-30T14:03:58.370Z,8.70
2022-10-30T14:06:33.722Z,9.45
2022-10-30T14:09:39.412Z,9.18
2022-10-30T14:12:49.151Z,8.45
2022-10-30T14:15:42.888Z,9.45
2022-10-30T14:18:12.611Z,8.67
2022-10-30T14:20:39.267Z,9.82
2022-10-30T14:23:16.110Z,10.05
2022-10-30T14:25:43.211Z,8.70
2022-10-30T14:28:22.017Z,9.65
2022-10-30T14:30:48.772Z,8.90
2022-10-30T14:33:34.290Z,12.07
2022-10-30T14:36:21.094Z,8.50
2022-10-30T14:38:55.569Z,10.43
2022-10-30T14:41:26.875Z,10.07
2022-10-30T14:44:03.208Z,9.60
2022-10-30T14:46:54.530Z,10.80
2022-10-30T14:49:44.958Z,12.15
2022-10-30T14:52:34.588Z,14.57
2022-10-30T14:55:30.789Z,11.20
2022-10-30T14:58:03.272Z,14.07
2022-10-30T15:00:30.648Z,11.80
2022-10-30T15:03:20.651Z,13.13
2022-10-30T15:05:58.714Z,15.40
2022-10-30T15:08:33.790Z,13.10
2022-10-30T15:11:20.806Z,13.93
2022-10-30T15:13:51.981Z,13.07
2022-10-30T15:16:19.534Z,13.18
2022-10-30T15:18:48.090Z,13.23
2022-10-30T15:21:20.651Z,12.48
2022-10-30T15:23:47.388Z,12.67
2022-10-30T15:26:20.614Z,11.65
2022-10-30T15:28:51.253Z,12.52
2022-10-30T15:31:17.974Z,14.43
2022-10-30T15:33:44.989Z,12.70
2022-10-30T15:36:18.807Z,13.97
2022-10-30T15:38:45.626Z,12.38
2022-10-30T15:41:12.368Z,13.50
2022-10-30T15:43:41.048Z,13.65
2022-10-30T15:46:11.008Z,13.70
2022-10-30T15:48:41.991Z,14.17
2022-10-30T15:51:15.451Z,12.43
2022-10-30T15:53:50.190Z,12.25
2022-10-30T15:56:18.221Z,13.50
2022-10-30T15:58:51.687Z,16.35
2022-10-30T16:01:39.223Z,13.67
2022-10-30T16:04:17.106Z,12.70
2022-10-30T16:06:54.688Z,15.02
2022-10-30T16:09:21.676Z,15.07
2022-10-30T16:11:49.152Z,16.38
2022-10-30T16:14:27.193Z,14.87
2022-10-30T16:16:54.048Z,19.70
2022-10-30T16:19:31.651Z,18.23
2022-10-30T16:21:58.554Z,16.83
2022-10-30T16:24:34.748Z,17.42
2022-10-30T16:27:14.429Z,16.17
2022-10-30T16:29:41.211Z,17.95
2022-10-30T16:34:40.211Z,16.70
2022-10-30T16:37:18.194Z,16.85
2022-10-30T16:39:44.946Z,17.60
2022-10-30T16:42:24.147Z,19.10
2022-10-30T16:44:51.029Z,15.60
2022-10-30T16:47:17.697Z,16.50
2022-10-30T16:49:52.967Z,21.38
2022-10-30T16:52:21.947Z,18.50
2022-10-30T16:54:53.728Z,17.88
2022-10-30T16:57:32.408Z,18.45
2022-10-30T17:00:00.010Z,18.25
2022-10-30T17:02:28.220Z,18.67
2022-10-30T17:05:09.412Z,19.93
2022-10-30T17:07:36.179Z,19.83
2022-10-30T17:10:02.958Z,22.13
2022-10-30T17:12:29.896Z,20.65
2022-10-30T17:15:04.417Z,22.95
2022-10-30T17:17:33.181Z,24.73
2022-10-30T17:20:01.856Z,28.13
2022-10-30T17:22:28.851Z,29.42
2022-10-30T17:24:55.813Z,33.15
2022-10-30T17:27:36.248Z,34.03
2022-10-30T17:30:04.147Z,30.70
2022-10-30T17:32:44.607Z,32.55
2022-10-30T17:35:15.907Z,32.45
2022-10-30T17:37:42.748Z,37.22
2022-10-30T17:40:10.508Z,41.92
2022-10-30T17:42:37.308Z,41.60
2022-10-30T17:45:07.189Z,38.58
2022-10-30T17:47:33.972Z,38.53
2022-10-30T17:50:03.136Z,41.67
2022-10-30T17:52:31.409Z,44.00
2022-10-30T17:54:58.226Z,40.80
2022-10-30T17:57:27.110Z,40.67
2022-10-30T17:59:53.928Z,39.53
2022-10-30T18:02:21.993Z,39.67
2022-10-30T18:04:49.089Z,40.92
2022-10-30T18:07:16.422Z,41.20
2022-10-30T18:09:43.731Z,40.50
2022-10-30T18:12:19.487Z,43.70
2022-10-30T18:14:46.713Z,45.45
2022-10-30T18:17:13.491Z,42.88
2022-10-30T18:19:40.250Z,41.60
2022-10-30T18:22:07.071Z,42.05
2022-10-30T18:24:33.873Z,45.05
2022-10-30T18:27:00.716Z,43.75
2022-10-30T18:29:27.546Z,45.75
2022-10-30T18:31:54.289Z,40.87
2022-10-30T18:34:21.755Z,42.25
2022-10-30T18:36:48.997Z,43.42
2022-10-30T18:39:15.749Z,41.38
2022-10-30T18:41:46.236Z,42.30
2022-10-30T18:44:16.734Z,43.07
2022-10-30T18:46:43.651Z,45.63
2022-10-30T18:49:10.472Z,43.65
2022-10-30T18:51:37.349Z,45.13
2022-10-30T18:54:05.049Z,44.55
2022-10-30T18:56:34.468Z,46.63
2022-10-30T18:59:02.496Z,44.33
2022-10-30T19:01:33.114Z,48.85
2022-10-30T19:04:04.624Z,46.65
2022-10-30T19:06:32.931Z,44.03
2022-10-30T19:08:59.787Z,45.93
2022-10-30T19:11:28.279Z,46.13
2022-10-30T19:13:57.147Z,45.22
2022-10-30T19:16:25.602Z,46.03
2022-10-30T19:18:52.803Z,46.83
2022-10-30T19:21:21.310Z,45.87
2022-10-30T19:23:48.247Z,44.72
2022-10-30T19:26:16.258Z,47.63
2022-10-30T19:28:43.790Z,47.92
2022-10-30T19:31:14.984Z,46.88
2022-10-30T19:33:41.873Z,47.87
2022-10-30T19:36:36.532Z,49.33
2022-10-30T19:39:11.562Z,49.65
2022-10-30T19:41:40.009Z,44.28
2022-10-30T19:44:06.932Z,51.05
2022-10-30T19:46:33.868Z,44.30
2022-10-30T19:49:00.853Z,46.05
2022-10-30T19:51:28.182Z,45.42
2022-10-30T19:53:55.031Z,44.28
2022-10-30T19:56:21.892Z,50.33
2022-10-30T19:58:49.008Z,47.47
2022-10-30T20:01:16.253Z,46.00
2022-10-30T20:03:43.335Z,46.63
2022-10-30T20:06:13.220Z,45.33
2022-10-30T20:08:40.031Z,42.88
2022-10-30T20:11:06.907Z,46.37
2022-10-30T20:13:33.989Z,46.92
2022-10-30T20:16:02.655Z,44.00
2022-10-30T20:18:31.648Z,45.67
2022-10-30T20:20:59.994Z,46.33
2022-10-30T20:23:26.906Z,45.40
2022-10-30T20:26:04.223Z,43.30
2022-10-30T20:28:38.200Z,45.33
2022-10-30T20:31:05.779Z,43.85
2022-10-30T20:33:32.493Z,44.78
2022-10-30T20:35:59.307Z,45.07
2022-10-30T20:38:31.295Z,46.65
2022-10-30T20:40:58.833Z,46.08
2022-10-30T20:43:31.889Z,45.25
2022-10-30T20:45:59.428Z,42.47
2022-10-30T20:48:26.593Z,41.03
2022-10-30T20:50:54.016Z,44.85
2022-10-30T20:53:20.778Z,44.90
2022-10-30T20:55:47.491Z,40.42
2022-10-30T20:58:14.230Z,43.45
2022-10-30T21:00:41.087Z,42.47
2022-10-30T21:03:08.365Z,42.63
2022-10-30T21:05:43.963Z,44.75
2022-10-30T21:08:12.543Z,39.83
2022-10-30T21:10:39.664Z,42.80
2022-10-30T21:13:09.034Z,43.90
2022-10-30T21:15:40.954Z,41.55
2022-10-30T21:18:07.925Z,40.10
2022-10-30T21:20:35.729Z,37.20
2022-10-30T21:23:02.482Z,40.97
2022-10-30T21:25:31.641Z,42.10
2022-10-30T21:27:58.577Z,43.63
2022-10-30T21:30:25.344Z,42.45
2022-10-30T21:32:52.147Z,43.80
2022-10-30T21:35:18.956Z,43.53
2022-10-30T21:37:45.711Z,43.47
2022-10-30T21:40:13.137Z,40.90
2022-10-30T21:42:39.866Z,39.65
2022-10-30T21:45:07.401Z,39.22
2022-10-30T21:47:34.136Z,42.47
2022-10-30T21:50:00.852Z,39.27
2022-10-30T21:52:27.642Z,40.20
2022-10-30T21:54:54.341Z,38.53
2022-10-30T21:57:21.040Z,39.70
2022-10-30T21:59:47.839Z,43.15
2022-10-30T22:02:15.438Z,40.23
2022-10-30T22:04:42.357Z,39.33
2022-10-30T22:07:09.114Z,40.42
2022-10-30T22:09:36.006Z,39.97
2022-10-30T22:12:02.684Z,41.78
2022-10-30T22:14:29.557Z,38.03
2022-10-30T22:16:56.400Z,41.47
2022-10-30T22:19:23.133Z,38.10
2022-10-30T22:21:49.862Z,39.78
2022-10-30T22:24:17.387Z,39.65
2022-10-30T22:26:44.083Z,38.87
2022-10-30T22:29:11.326Z,38.20
2022-10-30T22:31:38.034Z,38.90
2022-10-30T22:34:04.906Z,38.00
2022-10-30T22:36:32.528Z,37.58
2022-10-30T22:39:03.994Z,35.27
2022-10-30T22:41:34.582Z,35.72
2022-10-30T22:44:07.933Z,34.53
2022-10-30T22:46:35.419Z,33.88
2022-10-30T22:49:02.231Z,35.78
2022-10-30T22:51:33.831Z,35.43
2022-10-30T22:54:02.153Z,34.80
2022-10-30T22:56:30.883Z,33.90
2022-10-30T22:58:57.882Z,35.95
2022-10-30T23:01:29.144Z,33.42
2022-10-30T23:03:56.754Z,35.00
2022-10-30T23:06:23.511Z,35.53
2022-10-30T23:08:52.022Z,36.17
2022-10-30T23:11:18.781Z,35.63
2022-10-30T23:13:45.575Z,36.00
2022-10-30T23:16:17.191Z,34.17
2022-10-30T23:18:44.131Z,32.20
2022-10-30T23:21:13.066Z,34.28
2022-10-30T23:23:40.172Z,34.65
2022-10-30T23:26:23.401Z,30.63
2022-10-30T23:28:51.553Z,33.33
2022-10-30T23:31:37.612Z,32.95
2022-10-30T23:34:08.713Z,32.17
2022-10-30T23:36:35.586Z,35.97
2022-10-30T23:39:03.715Z,32.65
2022-10-30T23:41:31.268Z,32.40
2022-10-30T23:43:59.302Z,31.77
2022-10-30T23:46:26.187Z,29.63
2022-10-30T23:48:52.952Z,29.85
2022-10-30T23:51:19.930Z,29.42
2022-10-30T23:53:46.657Z,33.93
2022-10-30T23:56:13.741Z,30.98
2022-10-30T23:58:46.151Z,31.90
